createdAt,value
2023-02-06T00:01:50.598Z,16.50
2023-02-06T00:04:19.311Z,16.50
2023-02-06T00:06:47.590Z,16.50
2023-02-06T00:09:16.215Z,16.50
2023-02-06T00:11:44.544Z,16.50
2023-02-06T00:14:13.229Z,16.40
2023-02-06T00:16:41.479Z,16.50
2023-02-06T00:19:10.380Z,16.40
2023-02-06T00:21:38.648Z,16.40
2023-02-06T00:24:07.671Z,16.40
2023-02-06T00:26:36.116Z,16.40
2023-02-06T00:29:04.796Z,16.40
2023-02-06T00:31:33.174Z,16.40
2023-02-06T00:34:03.926Z,16.40
2023-02-06T00:36:33.982Z,16.40
2023-02-06T00:39:02.783Z,16.40
2023-02-06T00:41:31.092Z,16.30
2023-02-06T00:43:59.994Z,16.40
2023-02-06T00:48:57.258Z,16.30
2023-02-06T00:51:25.572Z,16.30
2023-02-06T00:53:54.172Z,16.30
2023-02-06T00:56:22.445Z,16.30
2023-02-06T00:58:51.027Z,16.30
2023-02-06T01:01:19.531Z,16.30
2023-02-06T01:03:48.272Z,16.30
2023-02-06T01:06:16.608Z,16.30
2023-02-06T01:08:45.727Z,16.20
2023-02-06T01:11:22.837Z,16.20
2023-02-06T01:13:52.150Z,16.20
2023-02-06T01:16:23.433Z,16.20
2023-02-06T01:18:53.506Z,16.20
2023-02-06T01:21:24.077Z,16.20
2023-02-06T01:23:53.724Z,16.20
2023-02-06T01:26:26.065Z,16.20
2023-02-06T01:28:55.556Z,16.20
2023-02-06T01:31:27.398Z,16.20
2023-02-06T01:33:57.356Z,16.20
2023-02-06T01:36:26.005Z,16.20
2023-02-06T01:38:54.687Z,16.20
2023-02-06T01:41:25.072Z,16.10
2023-02-06T01:44:14.183Z,16.10
2023-02-06T01:46:45.917Z,16.10
2023-02-06T01:49:31.249Z,16.10
2023-02-06T01:52:24.378Z,16.10
2023-02-06T01:57:27.387Z,16.10
2023-02-06T02:00:01.279Z,16.10
2023-02-06T02:02:43.216Z,16.10
2023-02-06T02:05:12.108Z,16.00
2023-02-06T02:07:52.014Z,16.10
2023-02-06T02:10:21.255Z,16.00
2023-02-06T02:12:49.828Z,16.00
2023-02-06T02:15:18.639Z,16.00
2023-02-06T02:18:39.440Z,16.00
2023-02-06T02:21:20.312Z,16.00
2023-02-06T02:23:58.019Z,16.00
2023-02-06T02:27:02.619Z,16.00
2023-02-06T02:29:47.266Z,16.00
2023-02-06T02:32:43.662Z,16.00
2023-02-06T02:35:28.966Z,16.00
2023-02-06T02:38:08.223Z,16.00
2023-02-06T02:40:47.404Z,16.00
2023-02-06T02:43:42.661Z,15.90
2023-02-06T02:46:20.191Z,15.90
2023-02-06T02:48:51.840Z,15.90
2023-02-06T02:51:20.901Z,15.90
2023-02-06T02:53:49.905Z,15.90
2023-02-06T02:56:22.064Z,15.90
2023-02-06T02:58:57.244Z,15.90
2023-02-06T03:01:37.431Z,15.90
2023-02-06T03:04:18.552Z,15.90
2023-02-06T03:07:13.260Z,15.90
2023-02-06T03:09:46.034Z,15.90
2023-02-06T03:12:30.090Z,15.90
2023-02-06T03:15:28.202Z,15.90
2023-02-06T03:18:28.490Z,15.90
2023-02-06T03:20:58.872Z,15.90
2023-02-06T03:23:31.278Z,15.80
2023-02-06T03:26:02.485Z,15.80
2023-02-06T03:28:40.311Z,15.80
2023-02-06T03:31:12.384Z,15.80
2023-02-06T03:34:15.364Z,15.80
2023-02-06T03:36:44.331Z,15.80
2023-02-06T03:39:12.918Z,15.80
2023-02-06T03:41:41.897Z,15.80
2023-02-06T03:44:12.585Z,15.80
2023-02-06T03:46:42.251Z,15.80
2023-02-06T03:49:13.182Z,15.80
2023-02-06T03:52:02.213Z,15.80
2023-02-06T04:47:04.850Z,15.80
2023-02-06T04:49:33.397Z,15.80
2023-02-06T04:52:02.222Z,15.90
2023-02-06T04:54:32.680Z,16.00
2023-02-06T04:57:01.666Z,16.00
2023-02-06T04:59:30.225Z,16.10
2023-02-06T05:04:27.836Z,16.10
2023-02-06T05:09:25.383Z,16.10
2023-02-06T05:11:54.243Z,16.10
2023-02-06T05:14:23.262Z,16.10
2023-02-06T05:16:52.125Z,16.20
2023-02-06T05:19:20.672Z,16.20
2023-02-06T05:21:49.811Z,16.30
2023-02-06T05:24:18.330Z,16.40
2023-02-06T05:29:15.953Z,16.50
2023-02-06T05:31:44.957Z,16.60
2023-02-06T05:34:13.451Z,16.70
2023-02-06T05:36:42.730Z,16.70
2023-02-06T05:39:11.342Z,16.80
2023-02-06T05:41:40.332Z,16.80
2023-02-06T05:44:11.365Z,16.90
2023-02-06T05:46:40.584Z,17.00
2023-02-06T05:49:09.177Z,17.00
2023-02-06T05:51:38.122Z,17.10
2023-02-06T05:54:06.773Z,17.20
2023-02-06T05:56:35.663Z,17.30
2023-02-06T05:59:04.267Z,17.30
2023-02-06T06:01:33.234Z,17.40
2023-02-06T06:04:01.872Z,17.50
2023-02-06T06:06:30.805Z,17.50
2023-02-06T06:09:01.596Z,17.60
2023-02-06T06:11:31.347Z,17.60
2023-02-06T06:14:00.292Z,17.70
2023-02-06T06:16:29.176Z,17.70
2023-02-06T06:18:57.748Z,17.80
2023-02-06T06:21:26.664Z,17.80
2023-02-06T06:23:55.469Z,17.90
2023-02-06T06:26:24.362Z,18.00
2023-02-06T06:28:53.188Z,18.00
2023-02-06T06:31:22.227Z,18.10
2023-02-06T06:33:50.887Z,18.00
2023-02-06T06:36:19.823Z,18.00
2023-02-06T06:38:48.467Z,18.00
2023-02-06T06:41:17.352Z,18.00
2023-02-06T06:43:45.867Z,18.00
2023-02-06T06:46:14.877Z,18.00
2023-02-06T06:48:43.533Z,17.90
2023-02-06T06:51:12.424Z,17.90
2023-02-06T06:53:40.987Z,17.80
2023-02-06T06:56:12.540Z,17.80
2023-02-06T06:58:41.549Z,17.70
2023-02-06T07:01:10.679Z,17.70
2023-02-06T07:03:39.195Z,17.60
2023-02-06T07:06:08.167Z,17.60
2023-02-06T07:08:42.028Z,17.50
2023-02-06T07:11:12.156Z,17.50
2023-02-06T07:13:41.157Z,17.50
2023-02-06T07:16:09.991Z,17.40
2023-02-06T07:18:43.245Z,17.40
2023-02-06T07:21:13.998Z,17.30
2023-02-06T07:23:42.704Z,17.30
2023-02-06T07:26:11.679Z,17.30
2023-02-06T07:28:40.396Z,17.20
2023-02-06T07:31:10.275Z,17.20
2023-02-06T07:33:38.838Z,17.20
2023-02-06T07:36:14.528Z,17.10
2023-02-06T07:38:43.017Z,17.10
2023-02-06T07:41:12.806Z,17.10
2023-02-06T07:43:41.521Z,17.10
2023-02-06T07:46:10.498Z,17.00
2023-02-06T07:48:39.080Z,17.00
2023-02-06T07:51:09.572Z,17.00
2023-02-06T07:53:38.532Z,16.90
2023-02-06T07:56:16.318Z,16.90
2023-02-06T07:58:45.115Z,16.90
2023-02-06T08:01:14.063Z,16.80
2023-02-06T08:03:42.697Z,16.90
2023-02-06T08:06:14.923Z,16.80
2023-02-06T08:08:43.982Z,16.80
2023-02-06T08:11:17.408Z,16.80
2023-02-06T08:28:53.641Z,16.80
2023-02-06T08:31:30.163Z,16.60
2023-02-06T08:33:58.897Z,16.60
2023-02-06T08:36:30.260Z,16.60
2023-02-06T08:38:59.129Z,16.60
2023-02-06T08:41:37.603Z,16.50
2023-02-06T08:46:43.784Z,16.50
2023-02-06T08:49:19.271Z,16.50
2023-02-06T08:51:49.803Z,16.50
2023-02-06T08:54:21.802Z,16.50
2023-02-06T08:56:51.757Z,16.40
2023-02-06T08:59:20.563Z,16.40
2023-02-06T09:01:49.660Z,16.30
2023-02-06T09:04:19.483Z,16.40
2023-02-06T09:06:49.311Z,16.30
2023-02-06T09:09:18.313Z,16.30
2023-02-06T09:11:47.822Z,16.30
2023-02-06T09:14:18.255Z,16.30
2023-02-06T09:16:47.123Z,16.30
2023-02-06T09:19:15.761Z,16.20
2023-02-06T09:21:44.629Z,16.20
2023-02-06T09:24:13.181Z,16.20
2023-02-06T09:26:58.451Z,16.20
2023-02-06T09:29:29.480Z,16.20
2023-02-06T09:31:58.423Z,16.20
2023-02-06T09:34:27.447Z,16.10
2023-02-06T09:36:57.053Z,16.20
2023-02-06T09:39:25.702Z,16.10
2023-02-06T09:44:44.976Z,16.10
2023-02-06T09:47:26.235Z,16.10
2023-02-06T09:50:17.454Z,16.10
2023-02-06T09:53:13.544Z,16.10
2023-02-06T09:55:45.432Z,16.10
2023-02-06T09:58:52.609Z,16.10
2023-02-06T10:02:05.569Z,16.10
2023-02-06T10:04:54.761Z,16.00
2023-02-06T10:08:01.912Z,16.00
2023-02-06T10:11:01.734Z,16.00
2023-02-06T10:13:42.225Z,16.00
2023-02-06T10:16:37.197Z,16.00
2023-02-06T10:19:39.413Z,15.90
2023-02-06T10:22:15.489Z,15.90
2023-02-06T10:25:15.207Z,15.90
2023-02-06T10:27:45.829Z,15.90
2023-02-06T10:30:19.989Z,15.90
2023-02-06T10:33:25.384Z,15.90
2023-02-06T10:36:47.539Z,15.90
2023-02-06T10:39:50.113Z,15.90
2023-02-06T10:42:58.433Z,15.90
2023-02-06T10:46:20.813Z,15.90
2023-02-06T11:54:35.609Z,15.80
2023-02-06T11:57:23.678Z,15.60
2023-02-06T11:59:55.863Z,15.70
2023-02-06T12:15:53.579Z,15.70
2023-02-06T12:18:28.267Z,15.70
2023-02-06T12:21:06.889Z,15.60
2023-02-06T12:23:58.353Z,15.70
2023-02-06T12:26:30.498Z,15.60
2023-02-06T12:29:10.051Z,15.70
2023-02-06T12:31:49.155Z,15.60
2023-02-06T12:34:20.718Z,15.60
2023-02-06T12:37:21.676Z,15.60
2023-02-06T12:39:50.293Z,15.60
2023-02-06T12:42:39.691Z,15.70
2023-02-06T12:45:52.761Z,15.60
2023-02-06T12:48:50.804Z,15.70
2023-02-06T12:51:40.598Z,15.70
2023-02-06T12:54:26.833Z,15.90
2023-02-06T12:57:02.251Z,15.90
2023-02-06T13:00:05.738Z,16.00
2023-02-06T13:03:07.934Z,16.10
2023-02-06T13:05:42.230Z,16.20
2023-02-06T13:08:20.645Z,16.30
2023-02-06T13:11:01.039Z,16.30
2023-02-06T13:13:49.876Z,16.30
2023-02-06T13:16:19.155Z,16.30
2023-02-06T13:18:53.074Z,16.30
2023-02-06T13:21:32.806Z,16.20
2023-02-06T13:24:04.124Z,16.30
2023-02-06T13:27:01.203Z,16.20
2023-02-06T13:29:40.208Z,16.20
2023-02-06T13:32:12.387Z,16.20
2023-02-06T13:34:45.614Z,16.20
2023-02-06T13:37:34.314Z,16.20
2023-02-06T13:40:25.878Z,16.20
2023-02-06T13:43:21.829Z,16.20
2023-02-06T13:45:57.879Z,16.10
2023-02-06T13:49:00.042Z,16.20
2023-02-06T13:51:50.691Z,16.10
2023-02-06T13:55:10.118Z,16.10
2023-02-06T13:58:12.235Z,16.10
2023-02-06T14:00:43.701Z,16.10
2023-02-06T14:03:34.268Z,16.00
2023-02-06T14:06:11.448Z,16.00
2023-02-06T14:09:04.532Z,16.00
2023-02-06T14:12:44.762Z,16.00
2023-02-06T14:15:53.339Z,16.00
2023-02-06T14:18:38.622Z,16.00
2023-02-06T14:21:26.291Z,16.00
2023-02-06T14:24:28.153Z,16.00
2023-02-06T14:27:05.811Z,15.90
2023-02-06T14:29:47.444Z,15.90
2023-02-06T14:32:54.493Z,15.90
2023-02-06T14:36:12.952Z,15.90
2023-02-06T14:39:39.880Z,15.90
2023-02-06T14:42:23.113Z,15.80
2023-02-06T14:45:06.367Z,15.80
2023-02-06T14:47:42.688Z,15.80
2023-02-06T14:50:36.247Z,15.80
2023-02-06T14:53:38.676Z,15.80
2023-02-06T14:56:22.417Z,15.70
2023-02-06T14:58:51.676Z,15.70
2023-02-06T15:01:29.635Z,15.70
2023-02-06T15:04:26.452Z,15.70
2023-02-06T15:07:03.190Z,15.70
2023-02-06T15:09:44.266Z,15.70
2023-02-06T15:12:25.291Z,15.80
2023-02-06T15:15:22.805Z,15.80
2023-02-06T15:18:00.061Z,15.90
2023-02-06T15:20:41.863Z,16.00
2023-02-06T15:23:41.626Z,16.00
2023-02-06T15:26:56.644Z,16.10
2023-02-06T15:29:29.388Z,16.10
2023-02-06T15:32:25.219Z,16.20
2023-02-06T15:34:53.685Z,16.20
2023-02-06T15:37:27.201Z,16.20
2023-02-06T15:39:55.880Z,16.20
2023-02-06T15:42:25.329Z,16.20
2023-02-06T15:44:53.939Z,16.20
2023-02-06T15:47:23.281Z,16.10
2023-02-06T15:49:53.368Z,16.10
2023-02-06T15:52:47.345Z,16.10
2023-02-06T15:55:32.300Z,16.10
2023-02-06T15:58:03.677Z,16.10
2023-02-06T16:00:35.619Z,16.00
2023-02-06T16:03:08.200Z,16.00
2023-02-06T16:05:40.931Z,16.00
2023-02-06T16:08:17.092Z,16.00
2023-02-06T16:10:56.384Z,16.00
2023-02-06T16:13:27.439Z,16.00
2023-02-06T16:16:21.810Z,16.00
2023-02-06T16:18:52.396Z,16.00
2023-02-06T16:21:30.409Z,16.10
2023-02-06T16:24:06.988Z,16.20
2023-02-06T16:26:44.118Z,16.20
2023-02-06T16:29:13.038Z,16.30
2023-02-06T16:31:43.773Z,16.40
2023-02-06T16:34:37.075Z,16.50
2023-02-06T16:37:12.240Z,16.60
2023-02-06T16:39:42.569Z,16.70
2023-02-06T16:42:26.323Z,16.70
2023-02-06T16:45:01.555Z,16.80
2023-02-06T16:47:30.362Z,16.90
2023-02-06T16:49:59.361Z,16.90
2023-02-06T16:52:32.627Z,17.00
2023-02-06T16:55:01.611Z,17.00
2023-02-06T16:57:34.897Z,17.10
2023-02-06T17:00:33.420Z,17.20
2023-02-06T17:03:02.039Z,17.20
2023-02-06T17:05:36.335Z,17.30
2023-02-06T17:08:17.474Z,17.40
2023-02-06T17:10:48.303Z,17.50
2023-02-06T17:13:20.753Z,17.60
2023-02-06T17:15:52.639Z,17.60
2023-02-06T17:18:22.443Z,17.60
2023-02-06T17:20:53.060Z,17.70
2023-02-06T17:23:21.795Z,17.70
2023-02-06T17:25:52.301Z,17.80
2023-02-06T17:28:21.192Z,17.80
2023-02-06T17:30:51.238Z,17.80
2023-02-06T17:33:20.921Z,17.80
2023-02-06T17:35:49.949Z,17.90
2023-02-06T17:38:18.555Z,18.00
2023-02-06T17:40:47.644Z,17.90
2023-02-06T17:43:16.686Z,17.90
2023-02-06T17:45:45.657Z,17.90
2023-02-06T17:48:14.447Z,17.90
2023-02-06T17:50:43.472Z,17.90
2023-02-06T17:53:14.063Z,17.80
2023-02-06T17:55:45.277Z,17.80
2023-02-06T17:58:14.259Z,17.80
2023-02-06T18:00:43.259Z,17.70
2023-02-06T18:03:11.909Z,17.60
2023-02-06T18:05:41.036Z,17.60
2023-02-06T18:08:09.619Z,17.60
2023-02-06T18:10:39.675Z,17.50
2023-02-06T18:13:08.339Z,17.60
2023-02-06T18:15:37.329Z,17.50
2023-02-06T18:18:05.879Z,17.60
2023-02-06T18:20:36.098Z,17.60
2023-02-06T18:28:03.138Z,17.60
2023-02-06T18:30:34.215Z,17.60
2023-02-06T18:33:03.004Z,17.70
2023-02-06T18:35:38.166Z,17.80
2023-02-06T18:38:10.011Z,17.90
2023-02-06T18:40:39.754Z,17.90
2023-02-06T18:43:08.534Z,18.00
2023-02-06T18:45:38.784Z,18.00
2023-02-06T18:48:10.975Z,18.00
2023-02-06T18:50:42.304Z,18.00
2023-02-06T18:53:10.825Z,18.00
2023-02-06T18:55:40.647Z,18.10
2023-02-06T18:58:09.283Z,18.00
2023-02-06T19:00:42.568Z,18.00
2023-02-06T19:03:11.043Z,18.00
2023-02-06T19:05:39.844Z,17.90
2023-02-06T19:08:08.469Z,17.90
2023-02-06T19:10:37.699Z,17.80
2023-02-06T19:13:06.651Z,17.80
2023-02-06T19:15:36.329Z,17.70
2023-02-06T19:18:06.077Z,17.70
2023-02-06T19:20:35.364Z,17.70
2023-02-06T19:23:04.169Z,17.70
2023-02-06T19:25:33.328Z,17.60
2023-02-06T19:28:01.954Z,17.50
2023-02-06T19:30:32.423Z,17.50
2023-02-06T19:33:01.256Z,17.40
2023-02-06T19:35:30.321Z,17.40
2023-02-06T19:38:00.982Z,17.30
2023-02-06T19:40:29.932Z,17.30
2023-02-06T19:42:58.581Z,17.30
2023-02-06T19:45:27.529Z,17.40
2023-02-06T19:47:57.378Z,17.50
2023-02-06T19:50:26.308Z,17.50
2023-02-06T19:52:54.954Z,17.60
2023-02-06T19:57:52.692Z,17.60
2023-02-06T20:00:22.103Z,17.80
2023-02-06T20:02:51.135Z,17.80
2023-02-06T20:05:26.193Z,17.90
2023-02-06T20:07:54.923Z,17.90
2023-02-06T20:10:23.900Z,18.00
2023-02-06T20:12:53.633Z,18.00
2023-02-06T20:15:22.803Z,17.90
2023-02-06T20:17:52.022Z,17.90
2023-02-06T20:20:21.076Z,17.90
2023-02-06T20:22:49.736Z,17.90
2023-02-06T20:25:18.881Z,17.80
2023-02-06T20:27:47.529Z,17.80
2023-02-06T20:30:19.048Z,17.80
2023-02-06T20:32:47.733Z,17.70
2023-02-06T20:35:16.834Z,17.70
2023-02-06T20:37:45.675Z,17.70
2023-02-06T20:40:14.980Z,17.60
2023-02-06T20:42:45.255Z,17.60
2023-02-06T20:45:14.567Z,17.50
2023-02-06T20:47:43.516Z,17.50
2023-02-06T20:50:14.211Z,17.50
2023-02-06T20:55:12.086Z,17.40
2023-02-06T20:57:41.435Z,17.40
2023-02-06T21:00:11.386Z,17.30
2023-02-06T21:02:39.988Z,17.30
2023-02-06T21:05:08.974Z,17.20
2023-02-06T21:07:39.277Z,17.20
2023-02-06T21:10:08.800Z,17.10
2023-02-06T21:12:37.391Z,17.10
2023-02-06T21:15:06.852Z,17.10
2023-02-06T21:17:35.470Z,17.10
2023-02-06T21:20:06.112Z,17.00
2023-02-06T21:22:34.632Z,17.00
2023-02-06T21:25:03.724Z,17.00
2023-02-06T21:27:32.326Z,16.90
2023-02-06T21:30:01.323Z,16.90
2023-02-06T21:32:30.015Z,16.90
2023-02-06T21:34:58.987Z,16.90
2023-02-06T21:37:27.535Z,16.80
2023-02-06T21:39:56.723Z,16.80
2023-02-06T21:42:27.628Z,16.80
2023-02-06T21:44:56.958Z,16.80
2023-02-06T21:47:25.527Z,16.70
2023-02-06T21:49:54.428Z,16.70
2023-02-06T21:52:23.208Z,16.70
2023-02-06T21:54:52.067Z,16.70
2023-02-06T21:57:20.553Z,16.60
2023-02-06T21:59:49.469Z,16.60
2023-02-06T22:02:17.994Z,16.60
2023-02-06T22:04:47.224Z,16.60
2023-02-06T22:07:15.859Z,16.60
2023-02-06T22:09:44.867Z,16.50
2023-02-06T22:12:13.399Z,16.50
2023-02-06T22:14:42.484Z,16.50
2023-02-06T22:17:11.120Z,16.50
2023-02-06T22:19:40.130Z,16.40
2023-02-06T22:22:08.785Z,16.50
2023-02-06T22:24:37.693Z,16.40
2023-02-06T22:27:06.303Z,16.40
2023-02-06T22:29:35.283Z,16.40
2023-02-06T22:32:05.076Z,16.40
2023-02-06T22:37:02.961Z,16.40
2023-02-06T22:39:31.785Z,16.30
2023-02-06T22:42:00.294Z,16.30
2023-02-06T22:44:29.354Z,16.30
2023-02-06T22:46:58.202Z,16.20
2023-02-06T22:49:27.152Z,16.20
2023-02-06T22:51:58.083Z,16.20
2023-02-06T22:54:26.936Z,16.20
2023-02-06T22:59:25.542Z,16.20
2023-02-06T23:01:58.381Z,16.10
2023-02-06T23:04:30.226Z,16.10
2023-02-06T23:06:58.720Z,16.10
2023-02-06T23:09:33.042Z,16.10
2023-02-06T23:12:02.233Z,16.10
2023-02-06T23:14:31.954Z,16.10
2023-02-06T23:17:00.773Z,16.00
2023-02-06T23:19:29.617Z,16.00
2023-02-06T23:21:58.057Z,16.00
2023-02-06T23:24:27.054Z,16.00
2023-02-06T23:26:55.591Z,16.00
2023-02-06T23:29:24.660Z,16.00
2023-02-06T23:31:53.244Z,15.90
2023-02-06T23:34:24.465Z,15.90
2023-02-06T23:36:53.218Z,15.90
2023-02-06T23:39:22.315Z,15.90
2023-02-06T23:41:50.840Z,15.90
2023-02-06T23:44:19.830Z,15.90
2023-02-06T23:46:48.374Z,15.90
2023-02-06T23:49:17.318Z,15.90
2023-02-06T23:51:45.788Z,15.80
2023-02-06T23:54:14.633Z,15.80
2023-02-06T23:56:43.392Z,15.80
2023-02-06T23:59:12.401Z,15.80
